Time;durP1;ratioP1;P1;durP2;ratioP2;P2;SDS_P1;SDS_P2;PMS_P1;PMS_P2;Temp;Humidity;BMP_temperature;BMP_pressure;BME280_temperature;BME280_humidity;BME280_pressure;Samples;Min_cycle;Max_cycle;Signal;HPM_P1;HPM_P2
2021/05/20 00:00:45;;;;;;;16.90;13.77;;;10.20;87.60;;;;;;5009298;28;20026;-80
2021/05/20 00:03:11;;;;;;;18.20;14.60;;;10.20;87.50;;;;;;4993933;28;20030;-79
2021/05/20 00:05:36;;;;;;;16.70;13.27;;;10.10;87.40;;;;;;4992442;28;20049;-79
2021/05/20 00:08:02;;;;;;;21.10;15.70;;;10.10;87.40;;;;;;5010801;28;20069;-79
2021/05/20 00:10:29;;;;;;;13.70;12.30;;;10.10;87.50;;;;;;5011275;28;20072;-81
2021/05/20 00:12:55;;;;;;;22.00;16.70;;;10.10;87.40;;;;;;4992375;28;20125;-79
2021/05/20 00:15:20;;;;;;;17.17;13.87;;;10.00;87.70;;;;;;5010252;28;20105;-78
2021/05/20 00:17:46;;;;;;;20.10;16.57;;;10.00;87.60;;;;;;5010829;28;20874;-79
2021/05/20 00:20:13;;;;;;;22.90;18.20;;;10.00;87.80;;;;;;5011127;28;20041;-79
2021/05/20 00:22:38;;;;;;;22.53;18.17;;;10.00;88.10;;;;;;4992857;28;20026;-79
2021/05/20 00:25:05;;;;;;;20.83;17.53;;;10.00;88.20;;;;;;5009989;28;20109;-80
2021/05/20 00:27:31;;;;;;;22.17;18.10;;;10.00;88.30;;;;;;5009706;28;20505;-82
2021/05/20 00:29:56;;;;;;;29.73;20.77;;;10.00;88.20;;;;;;5010316;28;20120;-79
2021/05/20 00:32:23;;;;;;;23.53;18.50;;;10.00;88.40;;;;;;5009757;28;20034;-80
2021/05/20 00:34:48;;;;;;;25.53;20.07;;;10.00;88.30;;;;;;4992864;28;20125;-80
2021/05/20 00:37:14;;;;;;;23.40;18.80;;;10.00;88.40;;;;;;5010398;28;20121;-80
2021/05/20 00:39:40;;;;;;;24.30;19.80;;;9.90;88.40;;;;;;4989624;28;20455;-79
2021/05/20 00:42:07;;;;;;;24.97;20.63;;;9.90;88.40;;;;;;4989583;28;20040;-80
2021/05/20 00:44:45;;;;;;;27.63;21.20;;;9.90;88.50;;;;;;5009458;28;20030;-83
2021/05/20 00:47:11;;;;;;;27.80;22.00;;;9.80;88.70;;;;;;5010979;28;20034;-79
2021/05/20 00:49:37;;;;;;;24.10;20.80;;;9.90;88.70;;;;;;5008754;28;20034;-82
2021/05/20 00:52:04;;;;;;;26.40;21.60;;;9.90;88.70;;;;;;5009656;28;20030;-79
2021/05/20 00:54:29;;;;;;;28.30;22.97;;;9.80;88.70;;;;;;5009763;28;20021;-79
2021/05/20 01:00:20;;;;;;;29.30;23.00;;;9.90;89.20;;;;;;5277756;23;20408;-82
2021/05/20 01:02:46;;;;;;;28.53;21.60;;;9.90;89.00;;;;;;4976508;28;20041;-79
2021/05/20 01:05:13;;;;;;;25.83;21.23;;;9.90;88.90;;;;;;5007795;28;20230;-79
2021/05/20 01:07:39;;;;;;;29.37;22.87;;;9.80;88.90;;;;;;5010119;28;20034;-80
2021/05/20 01:10:06;;;;;;;28.53;21.90;;;9.80;89.10;;;;;;5010698;28;20025;-79
2021/05/20 01:12:33;;;;;;;26.70;21.50;;;9.90;89.20;;;;;;5008985;28;20124;-79
2021/05/20 01:14:58;;;;;;;29.77;23.20;;;9.90;89.10;;;;;;5010056;28;20036;-79
2021/05/20 01:17:27;;;;;;;27.80;22.13;;;9.90;89.20;;;;;;5007534;28;20120;-80
2021/05/20 01:19:52;;;;;;;28.23;21.37;;;9.90;89.20;;;;;;5005089;28;20075;-80
2021/05/20 01:22:18;;;;;;;27.10;21.77;;;9.90;89.10;;;;;;4979559;28;20038;-79
2021/05/20 01:24:45;;;;;;;26.23;21.03;;;9.80;89.10;;;;;;4990143;28;20045;-81
2021/05/20 01:27:13;;;;;;;26.00;20.57;;;9.70;89.10;;;;;;4992478;28;20052;-80
2021/05/20 01:29:41;;;;;;;27.27;21.50;;;9.70;89.20;;;;;;5007918;28;20102;-79
2021/05/20 01:32:07;;;;;;;27.83;22.37;;;9.70;89.20;;;;;;5006560;28;20140;-79
2021/05/20 01:34:34;;;;;;;27.73;21.50;;;9.70;89.40;;;;;;5007190;28;20044;-79
2021/05/20 01:37:05;;;;;;;26.90;21.47;;;9.70;89.40;;;;;;5007097;28;20030;-79
2021/05/20 01:39:31;;;;;;;25.73;21.20;;;9.70;89.40;;;;;;5009521;28;20026;-79
2021/05/20 01:41:57;;;;;;;26.53;21.43;;;9.70;89.40;;;;;;5006830;28;20088;-79
2021/05/20 01:44:23;;;;;;;25.90;21.30;;;9.70;89.40;;;;;;4992903;28;20493;-78
2021/05/20 01:46:49;;;;;;;27.97;20.77;;;9.60;89.10;;;;;;5007721;28;20034;-81
2021/05/20 01:49:15;;;;;;;26.60;20.50;;;9.60;89.20;;;;;;5008056;28;20034;-79
2021/05/20 01:51:41;;;;;;;26.97;20.23;;;9.60;89.30;;;;;;5007557;28;20022;-78
2021/05/20 01:54:07;;;;;;;26.03;21.40;;;9.60;89.30;;;;;;5009982;28;20190;-79
2021/05/20 01:56:39;;;;;;;26.80;20.97;;;9.60;89.40;;;;;;5008405;28;20557;-79
2021/05/20 01:59:08;;;;;;;27.90;21.50;;;9.60;89.40;;;;;;5007562;28;20077;-79
2021/05/20 02:01:34;;;;;;;28.20;21.47;;;9.60;89.40;;;;;;4992127;28;20104;-80
2021/05/20 02:04:00;;;;;;;27.77;21.23;;;9.50;89.00;;;;;;5008803;28;20466;-79
2021/05/20 02:06:26;;;;;;;27.60;20.80;;;9.40;89.20;;;;;;5008901;28;20087;-79
2021/05/20 02:08:52;;;;;;;27.57;21.57;;;9.40;89.30;;;;;;5005485;28;20065;-81
2021/05/20 02:11:18;;;;;;;28.87;21.53;;;9.40;89.50;;;;;;5008189;28;20482;-79
2021/05/20 02:13:43;;;;;;;28.33;21.77;;;9.50;89.60;;;;;;4993122;28;20034;-79
2021/05/20 02:16:09;;;;;;;27.07;22.00;;;9.50;89.30;;;;;;5007788;28;20934;-78
2021/05/20 02:18:36;;;;;;;27.53;22.27;;;9.40;89.20;;;;;;4992976;28;20505;-79
2021/05/20 02:21:02;;;;;;;27.47;21.50;;;9.40;89.20;;;;;;4997411;28;20539;-79
2021/05/20 02:23:28;;;;;;;27.03;21.63;;;9.30;89.20;;;;;;4972401;28;20034;-79
2021/05/20 02:25:53;;;;;;;27.83;22.13;;;9.30;89.30;;;;;;4993564;28;20022;-80
2021/05/20 02:28:19;;;;;;;29.27;21.90;;;9.30;89.60;;;;;;4989695;28;20049;-79
2021/05/20 02:30:45;;;;;;;26.77;21.50;;;9.30;89.60;;;;;;4997470;28;20068;-79
2021/05/20 02:33:11;;;;;;;27.20;21.33;;;9.30;89.70;;;;;;4995984;28;20030;-79
2021/05/20 02:35:37;;;;;;;26.83;21.77;;;9.40;89.60;;;;;;5010992;28;20101;-81
2021/05/20 02:38:03;;;;;;;29.27;22.73;;;9.30;89.40;;;;;;5011227;28;20120;-80
2021/05/20 02:40:29;;;;;;;28.73;21.77;;;9.30;89.50;;;;;;5010912;28;20053;-79
2021/05/20 02:42:54;;;;;;;27.73;21.77;;;9.20;89.50;;;;;;5012144;28;20469;-81
2021/05/20 02:45:22;;;;;;;29.30;23.53;;;9.20;89.50;;;;;;4995785;28;20482;-80
2021/05/20 02:47:48;;;;;;;29.63;23.20;;;9.20;89.70;;;;;;4999539;28;20026;-80
2021/05/20 02:50:16;;;;;;;29.83;22.63;;;9.30;89.70;;;;;;4978634;28;20390;-80
2021/05/20 02:52:45;;;;;;;27.43;22.23;;;9.30;89.60;;;;;;5012922;28;20032;-79
2021/05/20 02:55:13;;;;;;;31.10;23.77;;;9.40;89.60;;;;;;5012873;28;20029;-79
2021/05/20 02:57:41;;;;;;;39.13;29.63;;;9.50;89.40;;;;;;4987090;28;20501;-80
2021/05/20 03:00:09;;;;;;;40.40;28.40;;;9.60;89.10;;;;;;4975532;28;20054;-79
2021/05/20 03:02:35;;;;;;;45.27;28.30;;;9.60;88.90;;;;;;4988410;28;20057;-80
2021/05/20 03:05:00;;;;;;;42.90;28.60;;;9.70;88.80;;;;;;4990223;28;20038;-81
2021/05/20 03:07:26;;;;;;;41.20;28.03;;;9.70;88.60;;;;;;4992362;28;20042;-79
2021/05/20 03:09:52;;;;;;;49.40;30.63;;;9.70;88.40;;;;;;4987271;28;20394;-81
2021/05/20 03:12:17;;;;;;;54.23;31.90;;;9.80;88.40;;;;;;5009919;28;20053;-80
2021/05/20 03:14:43;;;;;;;48.80;31.37;;;9.70;88.20;;;;;;4994773;28;20034;-80
2021/05/20 03:17:12;;;;;;;43.03;30.30;;;9.70;88.30;;;;;;5010409;28;20080;-81
2021/05/20 03:19:40;;;;;;;43.60;29.57;;;9.90;88.40;;;;;;5011837;28;20554;-79
2021/05/20 03:22:07;;;;;;;47.20;30.17;;;9.90;88.30;;;;;;4977431;28;20044;-81
2021/05/20 03:24:34;;;;;;;44.23;31.10;;;9.90;88.20;;;;;;4994959;28;20030;-80
2021/05/20 03:26:59;;;;;;;47.83;31.93;;;10.00;88.20;;;;;;5010709;28;20045;-79
2021/05/20 03:29:25;;;;;;;55.93;32.10;;;10.00;87.90;;;;;;5011157;28;20030;-79
2021/05/20 03:31:51;;;;;;;53.73;29.90;;;9.90;87.70;;;;;;5012654;28;20034;-78
2021/05/20 03:34:16;;;;;;;46.50;30.40;;;10.00;87.80;;;;;;4994329;28;21856;-80
2021/05/20 03:36:42;;;;;;;73.97;32.33;;;10.00;87.70;;;;;;5012231;28;20414;-81
2021/05/20 03:39:07;;;;;;;55.27;31.50;;;10.00;87.70;;;;;;4978172;28;20747;-81
2021/05/20 03:41:33;;;;;;;47.90;29.23;;;10.00;87.80;;;;;;4993999;28;20437;-78
2021/05/20 03:43:59;;;;;;;44.47;28.83;;;10.10;88.00;;;;;;5011420;28;20052;-79
2021/05/20 03:46:24;;;;;;;43.87;30.20;;;10.10;87.70;;;;;;4992640;28;20054;-79
2021/05/20 03:48:50;;;;;;;48.07;30.73;;;10.10;87.60;;;;;;4965957;28;20136;-80
2021/05/20 03:51:15;;;;;;;48.53;31.50;;;10.20;87.70;;;;;;4993430;28;20474;-79
2021/05/20 03:53:41;;;;;;;40.97;29.50;;;10.20;87.60;;;;;;5010675;28;20029;-80
2021/05/20 03:56:07;;;;;;;41.60;27.90;;;10.30;87.50;;;;;;5010201;28;20026;-82
2021/05/20 03:58:33;;;;;;;43.33;29.60;;;10.30;87.60;;;;;;5009786;28;20033;-79
2021/05/20 04:00:58;;;;;;;45.77;30.03;;;10.40;87.60;;;;;;4990883;28;20050;-79
2021/05/20 04:03:28;;;;;;;59.50;31.73;;;10.40;87.30;;;;;;4994044;28;20490;-79
2021/05/20 04:06:02;;;;;;;52.33;32.00;;;10.40;87.10;;;;;;5006124;28;20033;-79
2021/05/20 04:08:28;;;;;;;77.90;33.50;;;10.30;87.00;;;;;;4990594;28;20034;-77
2021/05/20 04:10:54;;;;;;;57.53;32.87;;;10.30;86.90;;;;;;4978577;28;20069;-80
2021/05/20 04:13:37;;;;;;;54.03;33.03;;;10.30;87.00;;;;;;4978050;28;20057;-80
2021/05/20 04:16:04;;;;;;;53.67;31.73;;;10.30;87.30;;;;;;5010287;28;20059;-79
2021/05/20 04:18:30;;;;;;;53.93;31.30;;;10.40;87.30;;;;;;5009861;28;20480;-80
2021/05/20 04:20:56;;;;;;;51.03;31.10;;;10.40;87.10;;;;;;5010015;28;20049;-81
2021/05/20 04:23:23;;;;;;;57.37;32.93;;;10.40;87.20;;;;;;5009758;28;20445;-79
2021/05/20 04:25:49;;;;;;;55.30;32.73;;;10.40;87.10;;;;;;5011124;28;20121;-79
2021/05/20 04:28:15;;;;;;;48.87;31.43;;;10.40;87.00;;;;;;5011060;28;20037;-82
2021/05/20 04:30:41;;;;;;;54.73;32.43;;;10.40;87.20;;;;;;5011239;28;20536;-80
2021/05/20 04:33:08;;;;;;;56.70;34.83;;;10.40;87.00;;;;;;5008560;28;20117;-79
2021/05/20 04:35:34;;;;;;;61.73;34.00;;;10.50;87.00;;;;;;4996617;28;20203;-80
2021/05/20 04:38:03;;;;;;;50.23;31.20;;;10.60;87.10;;;;;;5011000;28;20052;-79
2021/05/20 04:40:29;;;;;;;50.60;31.47;;;10.70;87.40;;;;;;5008721;28;20040;-80
2021/05/20 04:42:56;;;;;;;75.47;34.33;;;10.80;86.70;;;;;;5009180;28;20033;-80
2021/05/20 04:45:22;;;;;;;48.33;31.00;;;10.90;86.30;;;;;;4992941;28;20069;-79
2021/05/20 04:47:47;;;;;;;57.93;33.20;;;11.00;86.20;;;;;;5008777;28;20038;-79
2021/05/20 04:50:14;;;;;;;62.53;34.07;;;11.10;86.00;;;;;;5010519;28;20370;-80
2021/05/20 04:52:41;;;;;;;57.40;32.43;;;11.10;85.80;;;;;;5008901;28;20149;-80
2021/05/20 04:55:08;;;;;;;65.97;35.07;;;11.20;85.70;;;;;;5010269;28;20017;-80
2021/05/20 04:57:34;;;;;;;57.93;31.87;;;11.20;85.50;;;;;;5009565;28;20551;-80
2021/05/20 05:00:00;;;;;;;67.23;35.53;;;11.10;85.30;;;;;;5010933;28;20054;-79
2021/05/20 05:02:27;;;;;;;62.07;35.07;;;11.20;85.50;;;;;;5008776;28;20038;-79
2021/05/20 05:04:52;;;;;;;67.67;37.53;;;11.20;85.40;;;;;;5008610;28;20581;-79
2021/05/20 05:07:18;;;;;;;56.93;34.07;;;11.10;85.40;;;;;;4977919;28;20156;-81
2021/05/20 05:09:44;;;;;;;58.43;32.73;;;11.10;85.60;;;;;;5009465;28;20073;-80
2021/05/20 05:12:10;;;;;;;64.60;35.10;;;11.20;85.80;;;;;;4993533;28;20120;-79
2021/05/20 05:14:35;;;;;;;307.80;49.73;;;11.30;85.60;;;;;;5011046;28;20037;-78
2021/05/20 05:17:01;;;;;;;64.33;38.17;;;11.30;85.10;;;;;;4992225;28;20058;-78
2021/05/20 05:19:27;;;;;;;100.50;38.43;;;11.10;84.90;;;;;;5005458;28;20109;-79
2021/05/20 05:21:53;;;;;;;72.70;40.33;;;11.10;85.20;;;;;;4980864;28;20124;-78
2021/05/20 05:24:18;;;;;;;78.73;40.50;;;11.20;85.20;;;;;;5010482;28;20030;-79
2021/05/20 05:26:44;;;;;;;76.33;42.03;;;11.20;85.10;;;;;;5008834;28;20052;-78
2021/05/20 05:29:10;;;;;;;70.23;39.80;;;11.20;85.20;;;;;;5008722;28;20489;-79
2021/05/20 05:31:36;;;;;;;80.60;43.67;;;11.20;85.20;;;;;;5008432;28;20030;-80
2021/05/20 05:34:02;;;;;;;76.47;40.93;;;11.40;85.30;;;;;;5005952;28;20030;-80
2021/05/20 05:36:28;;;;;;;118.47;48.60;;;11.50;85.00;;;;;;4993263;28;20061;-79
2021/05/20 05:38:54;;;;;;;107.00;47.83;;;11.40;84.40;;;;;;4977037;28;20033;-78
2021/05/20 05:41:20;;;;;;;94.07;44.47;;;11.30;84.80;;;;;;4960287;28;20495;-80
2021/05/20 05:43:46;;;;;;;68.43;39.67;;;11.20;84.70;;;;;;5010713;28;20199;-80
2021/05/20 05:46:11;;;;;;;64.43;38.53;;;11.10;85.00;;;;;;5008148;28;20539;-79
2021/05/20 05:48:37;;;;;;;74.70;41.90;;;11.20;85.30;;;;;;5010062;28;20034;-78
2021/05/20 05:51:07;;;;;;;71.17;39.13;;;11.30;85.00;;;;;;4993856;28;20509;-78
2021/05/20 05:53:32;;;;;;;81.43;42.13;;;11.40;84.90;;;;;;5010572;28;20034;-79
2021/05/20 05:55:58;;;;;;;66.37;36.23;;;11.50;84.80;;;;;;5010557;28;20026;-78
2021/05/20 05:58:24;;;;;;;98.07;45.47;;;11.60;84.80;;;;;;5009366;28;20213;-77
2021/05/20 06:00:50;;;;;;;91.83;45.87;;;11.70;84.20;;;;;;5011228;28;21032;-77
2021/05/20 06:03:16;;;;;;;105.10;46.00;;;11.60;84.10;;;;;;5011592;28;20034;-79
2021/05/20 06:05:42;;;;;;;102.77;50.20;;;11.50;84.20;;;;;;5013078;28;20052;-77
2021/05/20 06:08:07;;;;;;;87.13;46.20;;;11.50;84.40;;;;;;5010697;28;20073;-80
2021/05/20 06:10:34;;;;;;;84.53;45.73;;;11.50;84.50;;;;;;5022159;28;20499;-79
2021/05/20 06:13:00;;;;;;;86.87;48.80;;;11.60;84.80;;;;;;5009585;28;20034;-80
2021/05/20 06:15:26;;;;;;;96.90;53.17;;;11.70;84.40;;;;;;5014349;28;20034;-77
2021/05/20 06:17:51;;;;;;;93.30;50.40;;;11.60;84.10;;;;;;5014321;28;20030;-77
2021/05/20 06:20:17;;;;;;;99.00;52.83;;;11.50;84.40;;;;;;5022302;28;20061;-79
2021/05/20 06:22:43;;;;;;;97.93;52.67;;;11.50;84.60;;;;;;5021324;28;20112;-78
2021/05/20 06:25:09;;;;;;;101.00;55.27;;;11.60;84.50;;;;;;4997806;28;20470;-78
2021/05/20 06:27:35;;;;;;;102.27;53.87;;;11.80;84.60;;;;;;5019976;28;20050;-82
2021/05/20 06:30:04;;;;;;;100.73;55.23;;;12.00;84.60;;;;;;4997034;28;20125;-79
2021/05/20 06:32:29;;;;;;;100.67;55.53;;;12.10;84.20;;;;;;5009745;28;20018;-78
2021/05/20 06:34:55;;;;;;;99.97;55.53;;;12.30;84.30;;;;;;4997729;28;20045;-78
2021/05/20 06:37:21;;;;;;;100.60;57.37;;;12.40;83.30;;;;;;4999047;28;20044;-79
2021/05/20 06:39:47;;;;;;;93.77;53.47;;;12.40;83.30;;;;;;5023965;28;20037;-79
2021/05/20 06:42:14;;;;;;;82.03;47.57;;;12.50;83.30;;;;;;5003860;28;20030;-77
2021/05/20 06:44:41;;;;;;;74.73;46.20;;;12.60;82.90;;;;;;5017575;28;20497;-81
2021/05/20 06:47:07;;;;;;;76.90;44.93;;;12.60;82.50;;;;;;5012293;28;20116;-79
2021/05/20 06:49:34;;;;;;;76.23;45.77;;;12.70;82.40;;;;;;5010660;28;20037;-78
2021/05/20 06:52:00;;;;;;;74.17;46.97;;;12.80;81.70;;;;;;5010424;28;20478;-77
2021/05/20 06:54:26;;;;;;;76.33;47.30;;;12.80;82.00;;;;;;5010542;28;20116;-79
2021/05/20 06:56:56;;;;;;;77.33;46.43;;;13.00;81.80;;;;;;5008910;28;20030;-79
2021/05/20 07:02:05;;;;;;;81.73;45.77;;;13.00;81.50;;;;;;5008558;28;20048;-81
2021/05/20 07:04:31;;;;;;;78.70;42.93;;;12.90;80.80;;;;;;4994473;28;20026;-79
2021/05/20 07:07:01;;;;;;;83.20;41.80;;;12.90;80.80;;;;;;5001361;28;20085;-75
2021/05/20 07:09:28;;;;;;;76.80;40.83;;;12.90;80.80;;;;;;4973367;28;20425;-78
2021/05/20 07:11:56;;;;;;;66.77;38.93;;;12.80;80.80;;;;;;5013364;28;20034;-77
2021/05/20 07:14:22;;;;;;;72.20;39.17;;;12.80;80.80;;;;;;4982481;28;20132;-79
2021/05/20 07:16:49;;;;;;;68.20;38.20;;;12.80;80.20;;;;;;5013896;28;20498;-77
2021/05/20 07:19:16;;;;;;;68.77;41.33;;;12.80;80.70;;;;;;4995108;28;20038;-79
2021/05/20 07:21:42;;;;;;;61.10;34.87;;;12.90;81.00;;;;;;5009513;28;20034;-80
2021/05/20 07:24:08;;;;;;;67.30;37.73;;;12.90;80.20;;;;;;5002788;28;20022;-79
2021/05/20 07:26:34;;;;;;;66.53;39.10;;;12.80;80.50;;;;;;5012295;28;20030;-78
2021/05/20 07:29:01;;;;;;;69.73;38.90;;;12.80;80.70;;;;;;5011082;28;20123;-78
2021/05/20 07:31:28;;;;;;;63.37;36.17;;;12.90;80.90;;;;;;4993430;28;20068;-80
2021/05/20 07:33:53;;;;;;;59.27;33.63;;;12.90;80.70;;;;;;5012949;28;20022;-79
2021/05/20 07:36:20;;;;;;;69.83;41.50;;;12.80;80.60;;;;;;5011653;28;20037;-78
2021/05/20 07:38:46;;;;;;;99.00;45.87;;;12.90;81.20;;;;;;4996584;28;20129;-80
2021/05/20 07:41:12;;;;;;;83.13;45.33;;;13.00;81.50;;;;;;5011947;28;21532;-78
2021/05/20 07:43:37;;;;;;;83.22;46.60;;;13.20;81.30;;;;;;4980649;28;20038;-77
2021/05/20 07:46:03;;;;;;;88.47;54.33;;;13.30;81.30;;;;;;5008192;28;20109;-79
2021/05/20 07:48:33;;;;;;;74.23;45.97;;;13.50;80.70;;;;;;5011292;28;20050;-79
2021/05/20 07:51:02;;;;;;;76.27;45.83;;;13.70;80.10;;;;;;4995028;28;20502;-78
2021/05/20 07:53:28;;;;;;;67.57;40.58;;;13.70;79.60;;;;;;4991447;28;20072;-78
2021/05/20 07:55:54;;;;;;;71.10;42.90;;;14.00;79.00;;;;;;4999049;28;20446;-79
2021/05/20 07:58:20;;;;;;;63.05;37.42;;;14.10;78.30;;;;;;4991343;28;20566;-79
2021/05/20 08:00:46;;;;;;;59.15;36.33;;;14.30;77.30;;;;;;4990231;28;20415;-79
2021/05/20 08:06:15;;;;;;;57.17;35.88;;;14.60;76.20;;;;;;5004826;28;20141;-81
2021/05/20 08:11:17;;;;;;;55.20;35.75;;;15.10;74.60;;;;;;5001341;28;20050;-78
2021/05/20 08:13:43;;;;;;;56.97;36.22;;;15.30;73.50;;;;;;5002942;28;20026;-78
2021/05/20 08:16:10;;;;;;;52.63;34.85;;;15.70;73.50;;;;;;4986746;28;20248;-77
2021/05/20 08:18:35;;;;;;;52.00;34.70;;;16.10;72.70;;;;;;5005826;28;20080;-78
2021/05/20 08:21:03;;;;;;;49.88;34.42;;;16.40;71.70;;;;;;5008551;28;20041;-79
2021/05/20 08:23:29;;;;;;;49.60;35.60;;;16.70;70.10;;;;;;5010701;28;20041;-78
2021/05/20 08:25:54;;;;;;;52.38;35.97;;;17.00;70.00;;;;;;5008806;28;20034;-82
2021/05/20 08:28:20;;;;;;;51.75;36.33;;;17.20;69.30;;;;;;5008608;28;20544;-77
2021/05/20 08:30:46;;;;;;;48.22;35.00;;;17.10;68.80;;;;;;4994498;28;20417;-77
2021/05/20 08:33:12;;;;;;;50.58;34.95;;;17.10;68.90;;;;;;5009576;28;20034;-76
2021/05/20 08:35:38;;;;;;;46.50;34.55;;;17.10;69.00;;;;;;5006831;28;20475;-79
2021/05/20 08:38:04;;;;;;;47.22;35.20;;;17.10;68.70;;;;;;4997667;28;20042;-78
2021/05/20 08:40:31;;;;;;;50.30;38.80;;;17.00;68.40;;;;;;5011863;28;20108;-78
2021/05/20 08:42:57;;;;;;;48.92;37.05;;;16.80;68.00;;;;;;4993298;28;20034;-81
2021/05/20 08:45:25;;;;;;;48.55;37.25;;;16.70;67.80;;;;;;5009547;28;20084;-77
2021/05/20 08:47:53;;;;;;;45.28;35.50;;;17.00;68.00;;;;;;5011876;28;20038;-78
2021/05/20 08:50:20;;;;;;;46.83;37.65;;;17.30;68.00;;;;;;5008958;28;20033;-77
2021/05/20 08:52:46;;;;;;;43.83;35.38;;;17.70;67.10;;;;;;5010594;28;20033;-77
2021/05/20 08:55:18;;;;;;;45.97;36.28;;;17.90;66.50;;;;;;5008420;28;20038;-76
2021/05/20 08:57:43;;;;;;;41.67;34.45;;;18.10;66.50;;;;;;5009335;28;20072;-77
2021/05/20 09:00:12;;;;;;;41.30;34.30;;;18.50;65.50;;;;;;5007711;28;20053;-77
2021/05/20 09:02:38;;;;;;;42.13;34.78;;;19.10;64.30;;;;;;5009937;28;20076;-77
2021/05/20 09:05:21;;;;;;;40.03;33.33;;;19.30;63.10;;;;;;5008857;28;20034;-78
2021/05/20 09:07:51;;;;;;;38.78;32.63;;;19.40;62.40;;;;;;4988679;28;20070;-78
2021/05/20 09:10:28;;;;;;;31.40;28.00;;;19.50;61.80;;;;;;4989820;28;20026;-78
2021/05/20 09:12:57;;;;;;;33.30;27.70;;;19.50;62.20;;;;;;5006944;28;20026;-77
2021/05/20 09:15:31;;;;;;;31.77;27.45;;;20.20;62.00;;;;;;5008323;28;20171;-77
2021/05/20 09:18:15;;;;;;;31.83;27.80;;;20.60;60.20;;;;;;5010865;28;20029;-79
2021/05/20 09:20:46;;;;;;;29.52;26.33;;;20.90;58.30;;;;;;5010403;28;20040;-77
2021/05/20 09:23:16;;;;;;;28.45;25.45;;;20.80;57.60;;;;;;5009630;28;20394;-77
2021/05/20 09:25:44;;;;;;;26.90;24.10;;;20.80;57.40;;;;;;5009825;28;20478;-76
2021/05/20 09:28:12;;;;;;;25.08;22.38;;;20.60;57.30;;;;;;5009469;28;20121;-79
2021/05/20 09:30:46;;;;;;;22.70;20.10;;;20.30;57.50;;;;;;4993268;28;20117;-77
2021/05/20 09:33:16;;;;;;;23.05;19.35;;;20.50;58.20;;;;;;5009458;28;20041;-77
2021/05/20 09:35:44;;;;;;;21.33;19.15;;;20.90;57.60;;;;;;5009342;28;20471;-77
2021/05/20 09:38:24;;;;;;;20.95;18.85;;;21.30;56.80;;;;;;5008207;28;20164;-77
2021/05/20 09:40:57;;;;;;;20.38;18.23;;;21.70;53.20;;;;;;5011335;28;20120;-76
2021/05/20 09:43:31;;;;;;;21.23;18.45;;;21.60;54.00;;;;;;5013874;28;20034;-77
2021/05/20 09:46:14;;;;;;;21.02;18.85;;;21.40;54.30;;;;;;5012601;28;20459;-77
2021/05/20 09:48:42;;;;;;;22.17;19.88;;;21.00;55.00;;;;;;5012393;28;20040;-76
2021/05/20 09:51:29;;;;;;;19.48;17.48;;;21.40;55.50;;;;;;4996197;28;20034;-83
2021/05/20 09:53:57;;;;;;;17.58;15.73;;;21.60;55.00;;;;;;5014725;28;20080;-76
2021/05/20 09:56:32;;;;;;;22.65;19.92;;;22.10;54.50;;;;;;5009129;28;20022;-76
2021/05/20 09:58:58;;;;;;;20.13;17.15;;;22.10;50.10;;;;;;5012136;28;20537;-79
2021/05/20 10:01:24;;;;;;;21.30;19.10;;;22.10;52.60;;;;;;4991426;28;20034;-76
2021/05/20 10:03:55;;;;;;;20.52;18.50;;;22.30;53.00;;;;;;4986482;28;20034;-77
2021/05/20 10:06:37;;;;;;;21.60;18.92;;;22.70;53.40;;;;;;5008417;28;20034;-77
2021/05/20 10:09:05;;;;;;;18.08;16.17;;;23.00;50.70;;;;;;5013704;28;20112;-78
2021/05/20 10:11:32;;;;;;;14.98;13.57;;;23.30;50.80;;;;;;4996379;28;20671;-77
2021/05/20 10:13:59;;;;;;;17.55;15.65;;;23.40;50.30;;;;;;5013401;28;20033;-79
2021/05/20 10:16:28;;;;;;;16.10;14.50;;;23.30;45.70;;;;;;4995285;28;20084;-77
2021/05/20 10:18:55;;;;;;;18.95;17.02;;;23.40;48.30;;;;;;5013265;28;20402;-77
2021/05/20 10:21:24;;;;;;;19.67;14.95;;;23.70;45.50;;;;;;4995922;28;20418;-76
2021/05/20 10:23:51;;;;;;;18.83;16.85;;;23.10;47.70;;;;;;5009186;28;20390;-77
2021/05/20 10:26:17;;;;;;;13.57;12.20;;;23.00;47.20;;;;;;5005501;28;20474;-82
2021/05/20 10:28:43;;;;;;;14.93;12.77;;;22.90;49.40;;;;;;5013734;28;20042;-77
2021/05/20 10:31:10;;;;;;;14.52;12.30;;;23.00;47.10;;;;;;5013282;28;20030;-75
2021/05/20 10:33:35;;;;;;;11.73;10.65;;;22.70;47.80;;;;;;5011052;28;20038;-76
2021/05/20 10:36:02;;;;;;;11.02;9.98;;;22.90;48.40;;;;;;5010938;28;20092;-76
2021/05/20 10:38:31;;;;;;;12.75;11.45;;;23.60;49.50;;;;;;5011149;28;20044;-76
2021/05/20 10:41:09;;;;;;;13.02;11.82;;;24.10;46.90;;;;;;5011846;28;20080;-76
2021/05/20 10:43:35;;;;;;;12.85;11.65;;;24.00;46.40;;;;;;5010863;28;20072;-76
2021/05/20 10:46:02;;;;;;;12.23;10.90;;;24.00;46.90;;;;;;5011271;28;20029;-78
2021/05/20 10:48:31;;;;;;;12.80;11.48;;;24.40;46.40;;;;;;5010869;28;20113;-77
2021/05/20 10:51:06;;;;;;;13.43;12.00;;;24.90;45.20;;;;;;4975255;28;20038;-76
2021/05/20 10:53:37;;;;;;;11.27;10.27;;;24.70;44.80;;;;;;5002743;28;20113;-76
2021/05/20 10:56:32;;;;;;;16.83;15.10;;;24.50;44.20;;;;;;5013797;28;20018;-76
2021/05/20 10:59:01;;;;;;;11.63;10.43;;;24.50;41.10;;;;;;5012741;28;20030;-76
2021/05/20 11:01:27;;;;;;;12.13;10.43;;;23.50;45.00;;;;;;5011775;28;20022;-76
2021/05/20 11:03:58;;;;;;;18.73;12.68;;;23.70;45.20;;;;;;5012146;28;20030;-75
2021/05/20 11:06:46;;;;;;;17.63;15.52;;;23.50;43.60;;;;;;5011149;28;20034;-80
2021/05/20 11:09:13;;;;;;;17.80;15.85;;;23.50;44.70;;;;;;5012271;28;20045;-76
2021/05/20 11:11:39;;;;;;;18.90;15.52;;;23.00;44.10;;;;;;5013145;28;20029;-77
2021/05/20 11:14:13;;;;;;;15.80;12.23;;;22.60;45.10;;;;;;5009791;28;20368;-76
2021/05/20 11:16:40;;;;;;;10.65;9.55;;;22.50;46.10;;;;;;5010449;28;20455;-76
2021/05/20 11:21:59;;;;;;;14.73;12.95;;;23.30;44.30;;;;;;5011904;28;20121;-76
2021/05/20 11:24:30;;;;;;;18.02;15.70;;;23.30;45.30;;;;;;5011383;28;20520;-80
2021/05/20 11:27:01;;;;;;;12.40;10.93;;;23.30;42.60;;;;;;5009567;28;20032;-78
2021/05/20 11:29:28;;;;;;;14.05;12.65;;;23.00;44.60;;;;;;5011964;28;20042;-80
2021/05/20 11:32:16;;;;;;;17.33;15.65;;;23.20;44.90;;;;;;5009357;28;20049;-77
2021/05/20 11:37:29;;;;;;;16.08;14.52;;;23.00;46.00;;;;;;5001580;28;20096;-78
2021/05/20 11:39:55;;;;;;;28.70;16.65;;;23.40;43.70;;;;;;4998163;28;20455;-76
2021/05/20 11:42:26;;;;;;;17.15;14.38;;;23.20;43.30;;;;;;5008630;28;20034;-75
2021/05/20 11:44:52;;;;;;;8.75;7.88;;;22.70;44.60;;;;;;5010095;28;20045;-78
2021/05/20 11:47:21;;;;;;;8.00;7.13;;;22.90;45.50;;;;;;5010486;28;20437;-78
2021/05/20 11:49:47;;;;;;;8.00;7.28;;;23.30;44.90;;;;;;4989204;28;20073;-79
2021/05/20 11:52:13;;;;;;;8.35;7.47;;;23.80;45.00;;;;;;5003522;28;20027;-77
2021/05/20 11:54:49;;;;;;;10.85;9.75;;;24.10;44.10;;;;;;5002025;28;20506;-75
2021/05/20 11:57:20;;;;;;;13.65;12.07;;;24.00;43.00;;;;;;5010849;28;20045;-77
2021/05/20 11:59:49;;;;;;;9.30;8.07;;;23.70;42.70;;;;;;5009172;28;20049;-75
2021/05/20 12:02:33;;;;;;;9.82;8.60;;;23.00;44.50;;;;;;5011434;28;20030;-75
2021/05/20 12:05:01;;;;;;;8.13;7.32;;;23.00;44.20;;;;;;5009809;28;20137;-75
2021/05/20 12:07:29;;;;;;;10.10;8.27;;;22.90;44.20;;;;;;5007250;28;20390;-75
2021/05/20 12:10:09;;;;;;;8.82;7.18;;;22.80;42.90;;;;;;5010571;28;20030;-75
2021/05/20 12:12:35;;;;;;;7.20;6.50;;;22.50;44.50;;;;;;5011695;28;20022;-79
2021/05/20 12:15:09;;;;;;;6.93;6.25;;;22.50;45.40;;;;;;5003883;28;20141;-75
2021/05/20 12:17:35;;;;;;;6.55;5.82;;;22.60;45.10;;;;;;5010371;28;20112;-80
2021/05/20 12:20:01;;;;;;;9.02;6.95;;;22.80;44.20;;;;;;4991080;28;20498;-77
2021/05/20 12:22:29;;;;;;;6.25;5.65;;;22.90;43.70;;;;;;5010706;28;20434;-77
2021/05/20 12:25:00;;;;;;;4.95;4.40;;;22.80;44.00;;;;;;5009267;28;20116;-75
2021/05/20 12:27:43;;;;;;;4.25;3.85;;;23.00;44.80;;;;;;5010983;28;20458;-76
2021/05/20 12:30:26;;;;;;;5.22;4.72;;;23.40;44.00;;;;;;4994506;28;20433;-75
2021/05/20 12:32:53;;;;;;;5.03;4.53;;;23.50;42.70;;;;;;5010800;28;20025;-75
2021/05/20 12:35:31;;;;;;;7.90;6.40;;;22.80;41.60;;;;;;5007273;28;20033;-75
2021/05/20 12:38:09;;;;;;;6.18;5.57;;;21.90;42.40;;;;;;5007693;28;20670;-77
2021/05/20 12:40:38;;;;;;;7.65;6.88;;;21.30;45.00;;;;;;5010422;28;20131;-77
2021/05/20 12:43:05;;;;;;;5.05;4.55;;;21.30;44.50;;;;;;5010755;28;20109;-76
2021/05/20 12:45:36;;;;;;;4.75;3.95;;;21.40;46.40;;;;;;5010693;28;20172;-77
2021/05/20 12:48:02;;;;;;;6.45;4.45;;;21.90;45.90;;;;;;5010183;28;20632;-76
2021/05/20 12:50:34;;;;;;;5.55;4.15;;;22.20;44.20;;;;;;5010363;28;20061;-76